Search for airport 
image banner adimage banner adimage banner ad
image banner ad

KINS - Creech Afb

Located in Indian Springs, United States

ICAO - INS, IATA - INS

Data provided by Airmate  

General information

Coordinates: N36°35'11" W115°40'39"
Elevation is 3134 feet MSL.
Magnetic variation is 15° East
View others Airports in Nevada

Operational data

Special qualification required
Current time UTC:
Current local time:
Weather
METAR: KINS 091858Z AUTO 07005KT 10SM CLR 24/M16 A2993 RMK AO2 SLP097 T02401158 $
View NOTAMs / SUP AIP / TFR affecting this airport [VIEW]
Communications frequencies: [VIEW]

Runways:

RWY identifierQFULength (ft)Width (ft)SurfaceLDA (ft)
0893°9002150ASPH
26273°9002150ASPH
135476100ASPH
315476100ASPH

Airport contact information

Address: Indian Springs United States

Satellite view of KINS